Sugar Creek, Missouri
Current Conditions -  °F | °C
As of 10:54 PM on Friday 28 Nov 2014 (Local Time) from KMKC Reporting Station
Clear Clear  
Wind Chill: 55°   Ceiling: Unl
Heat Index: 55°   Visibility: 10mi
Dew Point: 38°   Wind: 13mph
Humidity: 53%   Direction: 210°SSW
Pressure: 29.73"   Gusts: NA
Location:  39.11°N, 94.4625°W
Report Text: KMKC 290454Z 21011KT 10SM CLR 13/03 A2973 RMK AO2 SLP067 T01280033
Loading
Personal Weather Stations






























Interactive Weather Map New forecast layout! Learn more

10-Day Weather Forecast

Advertisements
Track Severe Weather on mobile